createdAt,value
2023-05-22T00:02:04.613Z,49.15
2023-05-22T00:04:33.444Z,50.04
2023-05-22T00:07:00.933Z,48.97
2023-05-22T00:09:28.400Z,49.58
2023-05-22T00:11:55.904Z,50.90
2023-05-22T00:14:23.381Z,51.12
2023-05-22T00:16:50.912Z,50.13
2023-05-22T00:19:18.843Z,49.63
2023-05-22T00:21:47.803Z,49.72
2023-05-22T00:24:15.258Z,50.19
2023-05-22T00:26:42.721Z,49.30
2023-05-22T00:29:10.841Z,50.16
2023-05-22T00:31:38.284Z,50.47
2023-05-22T00:34:05.731Z,50.33
2023-05-22T00:36:33.154Z,50.19
2023-05-22T00:39:01.927Z,50.62
2023-05-22T00:41:29.485Z,50.33
2023-05-22T00:43:56.936Z,50.90
2023-05-22T00:46:24.530Z,50.96
2023-05-22T00:48:52.769Z,50.49
2023-05-22T00:51:22.171Z,51.14
2023-05-22T00:53:50.625Z,51.51
2023-05-22T00:56:19.870Z,51.60
2023-05-22T00:58:47.548Z,51.15
2023-05-22T01:01:16.109Z,51.04
2023-05-22T01:03:45.847Z,51.32
2023-05-22T01:06:14.242Z,50.15
2023-05-22T01:08:42.251Z,51.24
2023-05-22T01:11:16.263Z,50.51
2023-05-22T01:13:52.879Z,50.36
2023-05-22T01:16:29.721Z,50.65
2023-05-22T01:19:04.110Z,51.02
2023-05-22T01:21:39.920Z,50.23
2023-05-22T01:24:30.030Z,50.01
2023-05-22T01:27:26.025Z,50.95
2023-05-22T01:30:07.151Z,50.62
2023-05-22T01:32:38.316Z,50.99
2023-05-22T01:35:12.305Z,50.99
2023-05-22T01:37:40.137Z,51.07
2023-05-22T01:40:09.144Z,50.74
2023-05-22T01:42:36.671Z,50.52
2023-05-22T01:45:04.355Z,50.46
2023-05-22T01:47:33.809Z,49.94
2023-05-22T01:50:02.935Z,49.51
2023-05-22T01:52:41.055Z,49.60
2023-05-22T01:55:14.421Z,51.26
2023-05-22T01:57:50.162Z,50.27
2023-05-22T02:00:20.649Z,50.28
2023-05-22T02:02:52.194Z,50.66
2023-05-22T02:05:24.226Z,50.92
2023-05-22T02:07:52.386Z,50.72
2023-05-22T02:10:22.632Z,51.21
2023-05-22T02:12:50.220Z,52.23
2023-05-22T02:15:17.811Z,52.36
2023-05-22T02:17:46.106Z,52.90
2023-05-22T02:20:16.016Z,53.55
2023-05-22T02:22:46.445Z,54.41
2023-05-22T02:25:15.100Z,54.00
2023-05-22T02:27:43.337Z,53.58
2023-05-22T02:30:11.366Z,53.13
2023-05-22T02:32:40.997Z,52.69
2023-05-22T02:35:09.591Z,53.49
2023-05-22T02:37:37.155Z,53.10
2023-05-22T02:40:07.379Z,53.07
2023-05-22T02:42:34.910Z,53.41
2023-05-22T02:45:02.694Z,53.73
2023-05-22T02:47:30.266Z,54.08
2023-05-22T02:49:59.181Z,54.90
2023-05-22T02:52:28.338Z,53.28
2023-05-22T02:54:55.851Z,55.11
2023-05-22T02:57:24.623Z,54.35
2023-05-22T02:59:52.646Z,55.06
2023-05-22T03:02:20.181Z,54.03
2023-05-22T03:04:47.710Z,54.52
2023-05-22T03:07:15.173Z,54.10
2023-05-22T03:09:42.592Z,54.63
2023-05-22T03:12:11.047Z,55.24
2023-05-22T03:14:40.099Z,54.54
2023-05-22T03:17:07.567Z,54.90
2023-05-22T03:19:35.044Z,55.11
2023-05-22T03:22:02.579Z,55.62
2023-05-22T03:24:30.060Z,53.91
2023-05-22T03:26:57.544Z,56.54
2023-05-22T03:29:25.000Z,55.46
2023-05-22T03:31:54.736Z,55.80
2023-05-22T03:34:22.678Z,57.39
2023-05-22T03:36:50.671Z,56.63
2023-05-22T03:39:18.125Z,54.73
2023-05-22T03:41:45.562Z,54.83
2023-05-22T03:44:13.022Z,54.30
2023-05-22T03:46:40.535Z,54.36
2023-05-22T03:49:09.312Z,52.90
2023-05-22T03:51:36.755Z,54.01
2023-05-22T03:54:04.460Z,53.19
2023-05-22T03:56:31.905Z,54.00
2023-05-22T03:58:59.373Z,53.34
2023-05-22T04:01:26.823Z,51.04
2023-05-22T04:03:54.264Z,50.05
2023-05-22T04:06:23.458Z,47.44
2023-05-22T04:08:51.003Z,45.78
2023-05-22T04:11:18.531Z,43.06
2023-05-22T04:13:46.398Z,42.09
2023-05-22T04:16:13.879Z,43.23
2023-05-22T04:18:41.358Z,43.07
2023-05-22T04:21:09.511Z,41.32
2023-05-22T04:23:38.600Z,40.92
2023-05-22T04:26:08.776Z,40.75
2023-05-22T04:28:36.329Z,38.64
2023-05-22T04:31:06.425Z,38.61
2023-05-22T04:33:35.232Z,42.35
2023-05-22T04:36:02.883Z,44.67
2023-05-22T04:38:30.430Z,44.41
2023-05-22T04:41:00.360Z,44.62
2023-05-22T04:43:27.907Z,44.94
2023-05-22T04:45:56.439Z,45.49
2023-05-22T04:48:24.026Z,48.49
2023-05-22T04:50:52.064Z,48.85
2023-05-22T04:53:19.550Z,50.48
2023-05-22T04:55:47.034Z,51.68
2023-05-22T04:58:15.969Z,51.63
2023-05-22T05:00:43.594Z,52.08
2023-05-22T05:03:11.750Z,49.49
2023-05-22T05:05:39.302Z,50.54
2023-05-22T05:08:06.904Z,51.46
2023-05-22T05:10:35.540Z,53.65
2023-05-22T05:13:03.038Z,53.70
2023-05-22T05:15:32.426Z,51.67
2023-05-22T05:17:59.908Z,53.33
2023-05-22T05:20:28.062Z,55.72
2023-05-22T05:22:55.556Z,54.80
2023-05-22T05:25:23.139Z,54.34
2023-05-22T05:27:50.611Z,54.88
2023-05-22T05:30:20.320Z,53.35
2023-05-22T05:32:49.520Z,57.21
2023-05-22T05:35:17.165Z,54.80
2023-05-22T05:37:44.613Z,55.27
2023-05-22T05:40:13.476Z,55.07
2023-05-22T05:42:41.071Z,54.82
2023-05-22T05:45:09.592Z,53.71
2023-05-22T05:47:37.107Z,53.52
2023-05-22T05:50:07.262Z,55.08
2023-05-22T05:52:34.831Z,54.22
2023-05-22T05:55:02.424Z,54.74
2023-05-22T05:57:31.014Z,49.84
2023-05-22T05:59:58.518Z,50.32
2023-05-22T06:02:26.009Z,52.08
2023-05-22T06:04:53.837Z,52.14
2023-05-22T06:07:22.628Z,54.74
2023-05-22T06:09:50.104Z,53.85
2023-05-22T06:12:17.524Z,55.46
2023-05-22T06:14:44.982Z,55.53
2023-05-22T06:17:12.497Z,54.61
2023-05-22T06:19:40.087Z,55.06
2023-05-22T06:22:07.676Z,55.71
2023-05-22T06:24:36.583Z,57.83
2023-05-22T06:27:04.190Z,55.84
2023-05-22T06:29:31.647Z,56.93
2023-05-22T06:31:59.266Z,55.77
2023-05-22T06:34:27.955Z,54.89
2023-05-22T06:36:55.505Z,54.17
2023-05-22T06:39:22.984Z,53.15
2023-05-22T06:41:51.723Z,54.45
2023-05-22T06:44:19.163Z,54.23
2023-05-22T06:46:46.656Z,54.91
2023-05-22T06:49:14.108Z,55.07
2023-05-22T06:51:41.531Z,55.48
2023-05-22T06:54:09.544Z,56.34
2023-05-22T06:56:37.051Z,55.03
2023-05-22T06:59:06.438Z,55.40
2023-05-22T07:01:34.097Z,54.88
2023-05-22T07:04:02.303Z,56.15
2023-05-22T07:06:32.358Z,55.51
2023-05-22T07:09:00.665Z,54.53
2023-05-22T07:11:28.203Z,54.27
2023-05-22T07:13:55.758Z,54.29
2023-05-22T07:16:25.347Z,56.21
2023-05-22T07:18:53.220Z,53.23
2023-05-22T07:21:23.716Z,56.17
2023-05-22T07:23:52.198Z,57.43
2023-05-22T07:26:22.436Z,55.99
2023-05-22T07:28:50.157Z,56.34
2023-05-22T07:31:17.682Z,55.85
2023-05-22T07:33:46.498Z,57.18
2023-05-22T07:36:14.054Z,55.03
2023-05-22T07:38:41.817Z,55.02
2023-05-22T07:41:09.327Z,55.99
2023-05-22T07:43:36.766Z,56.09
2023-05-22T07:46:06.121Z,55.67
2023-05-22T07:48:33.694Z,55.78
2023-05-22T07:51:03.746Z,54.29
2023-05-22T07:53:31.737Z,54.43
2023-05-22T07:55:59.223Z,55.50
2023-05-22T07:58:26.899Z,55.25
2023-05-22T08:00:54.494Z,53.69
2023-05-22T08:03:24.033Z,53.11
2023-05-22T08:05:51.929Z,53.20
2023-05-22T08:08:20.772Z,53.80
2023-05-22T08:11:03.098Z,52.73
2023-05-22T08:13:32.241Z,52.77
2023-05-22T08:16:00.519Z,53.50
2023-05-22T08:18:29.416Z,53.70
2023-05-22T08:20:57.663Z,51.93
2023-05-22T08:23:26.417Z,52.20
2023-05-22T08:25:54.077Z,53.43
2023-05-22T08:28:21.559Z,51.99
2023-05-22T08:30:49.005Z,50.67
2023-05-22T08:33:16.568Z,50.96
2023-05-22T08:35:44.069Z,50.37
2023-05-22T08:38:11.585Z,51.40
2023-05-22T08:40:42.597Z,51.68
2023-05-22T08:43:12.025Z,50.07
2023-05-22T08:45:42.400Z,49.34
2023-05-22T08:48:13.583Z,48.88
2023-05-22T08:50:43.340Z,49.92
2023-05-22T08:53:13.542Z,50.39
2023-05-22T08:55:42.447Z,49.69
2023-05-22T08:58:12.166Z,50.35
2023-05-22T09:00:39.835Z,50.19
2023-05-22T09:03:10.180Z,50.70
2023-05-22T09:05:39.192Z,49.69
2023-05-22T09:08:19.135Z,49.33
2023-05-22T09:10:49.657Z,48.26
2023-05-22T09:13:26.174Z,47.88
2023-05-22T09:15:53.782Z,49.19
2023-05-22T09:18:22.058Z,48.23
2023-05-22T09:20:49.591Z,49.06
2023-05-22T09:23:18.540Z,49.59
2023-05-22T09:25:47.739Z,49.25
2023-05-22T09:28:16.636Z,48.15
2023-05-22T09:30:44.209Z,48.23
2023-05-22T09:33:17.155Z,50.01
2023-05-22T09:35:45.786Z,48.33
2023-05-22T09:38:13.598Z,48.70
2023-05-22T09:40:42.404Z,48.80
2023-05-22T09:43:10.149Z,49.26
2023-05-22T09:45:40.220Z,49.38
2023-05-22T09:48:10.064Z,48.79
2023-05-22T09:50:38.124Z,49.12
2023-05-22T09:53:06.126Z,48.43
2023-05-22T09:55:34.777Z,50.33
2023-05-22T09:58:05.329Z,49.65
2023-05-22T10:00:36.635Z,49.37
2023-05-22T10:03:12.040Z,48.79
2023-05-22T10:05:45.075Z,49.82
2023-05-22T10:08:16.237Z,49.45
2023-05-22T10:10:48.584Z,49.66
2023-05-22T10:13:16.195Z,49.44
2023-05-22T10:15:43.990Z,47.58
2023-05-22T10:18:13.572Z,47.30
2023-05-22T10:20:41.399Z,47.38
2023-05-22T10:23:10.733Z,48.40
2023-05-22T10:25:39.186Z,49.91
2023-05-22T10:28:08.737Z,48.34
2023-05-22T10:30:45.003Z,48.75
2023-05-22T10:33:18.716Z,47.51
2023-05-22T10:35:52.232Z,46.82
2023-05-22T10:38:36.905Z,46.62
2023-05-22T10:41:05.297Z,46.71
2023-05-22T10:43:33.018Z,46.79
2023-05-22T10:46:05.030Z,47.58
2023-05-22T10:48:39.740Z,46.67
2023-05-22T10:51:08.294Z,47.01
2023-05-22T10:53:36.619Z,47.22
2023-05-22T10:56:12.500Z,47.55
2023-05-22T10:58:40.643Z,48.12
2023-05-22T11:01:15.329Z,47.39
2023-05-22T11:03:58.178Z,47.79
2023-05-22T11:06:33.941Z,45.83
2023-05-22T11:09:17.117Z,46.69
2023-05-22T11:11:44.702Z,47.17
2023-05-22T11:14:12.683Z,46.44
2023-05-22T11:16:40.840Z,45.51
2023-05-22T11:19:22.713Z,45.91
2023-05-22T11:21:51.541Z,44.58
2023-05-22T11:24:19.557Z,45.36
2023-05-22T11:27:02.325Z,44.64
2023-05-22T11:29:30.298Z,44.27
2023-05-22T11:31:58.747Z,44.60
2023-05-22T11:34:27.933Z,44.08
2023-05-22T11:36:59.505Z,43.50
2023-05-22T11:39:27.282Z,43.71
2023-05-22T11:41:54.810Z,43.26
2023-05-22T11:44:22.373Z,43.81
2023-05-22T11:46:49.968Z,43.52
2023-05-22T11:49:17.534Z,44.07
2023-05-22T11:51:46.318Z,42.95
2023-05-22T11:54:13.757Z,42.36
2023-05-22T11:56:41.249Z,42.50
2023-05-22T11:59:08.714Z,42.45
2023-05-22T12:01:36.367Z,42.92
2023-05-22T12:04:04.406Z,42.43
2023-05-22T12:06:33.471Z,41.30
2023-05-22T12:09:02.815Z,41.42
2023-05-22T12:11:35.652Z,41.65
2023-05-22T12:14:04.172Z,41.07
2023-05-22T12:16:36.230Z,41.44
2023-05-22T12:19:06.262Z,41.45
2023-05-22T12:21:34.156Z,40.99
2023-05-22T12:24:06.134Z,40.57
2023-05-22T12:26:34.007Z,41.24
2023-05-22T12:29:02.638Z,41.18
2023-05-22T12:31:36.014Z,40.78
2023-05-22T12:34:07.316Z,40.96
2023-05-22T12:36:35.936Z,40.50
2023-05-22T12:39:08.295Z,39.89
2023-05-22T12:41:35.782Z,39.90
2023-05-22T12:44:04.101Z,39.96
2023-05-22T12:46:32.363Z,40.07
2023-05-22T12:48:59.934Z,39.46
2023-05-22T12:51:29.729Z,39.49
2023-05-22T12:53:57.625Z,39.39
2023-05-22T12:56:26.984Z,38.88
2023-05-22T12:58:54.610Z,39.21
2023-05-22T13:01:24.395Z,39.19
2023-05-22T13:03:52.756Z,39.27
2023-05-22T13:06:20.560Z,39.49
2023-05-22T13:08:48.086Z,38.42
2023-05-22T13:11:15.575Z,38.93
2023-05-22T13:13:44.350Z,39.51
2023-05-22T13:16:12.107Z,39.14
2023-05-22T13:18:39.575Z,39.08
2023-05-22T13:21:07.178Z,39.22
2023-05-22T13:23:34.635Z,39.21
2023-05-22T13:26:03.173Z,38.69
2023-05-22T13:28:30.629Z,38.84
2023-05-22T13:30:59.846Z,38.34
2023-05-22T13:33:27.372Z,38.57
2023-05-22T13:35:54.840Z,37.71
2023-05-22T13:38:22.292Z,37.50
2023-05-22T13:40:49.953Z,37.70
2023-05-22T13:43:17.599Z,36.96
2023-05-22T13:45:45.056Z,36.95
2023-05-22T13:48:14.072Z,36.70
2023-05-22T13:50:41.510Z,36.82
2023-05-22T13:53:09.081Z,36.36
2023-05-22T13:55:37.059Z,36.12
2023-05-22T13:58:04.960Z,36.10
2023-05-22T14:00:32.419Z,36.21
2023-05-22T14:03:00.615Z,36.12
2023-05-22T14:05:29.515Z,35.33
2023-05-22T14:07:56.936Z,35.91
2023-05-22T14:10:24.544Z,35.38
2023-05-22T14:12:52.072Z,35.36
2023-05-22T14:15:19.555Z,35.17
2023-05-22T14:17:47.792Z,34.81
2023-05-22T14:20:15.384Z,35.55
2023-05-22T14:22:56.551Z,35.27
2023-05-22T14:25:25.343Z,35.63
2023-05-22T14:27:52.783Z,35.46
2023-05-22T14:30:20.359Z,34.70
2023-05-22T14:32:48.705Z,35.56
2023-05-22T14:35:16.828Z,35.81
2023-05-22T14:37:46.886Z,35.88
2023-05-22T14:40:14.372Z,35.36
2023-05-22T14:42:41.826Z,35.22
2023-05-22T14:45:09.892Z,36.54
2023-05-22T14:47:37.390Z,35.75
2023-05-22T14:50:18.019Z,35.72
2023-05-22T14:52:48.703Z,35.55
2023-05-22T14:55:16.625Z,35.56
2023-05-22T14:57:44.100Z,35.14
2023-05-22T15:00:12.992Z,35.00
2023-05-22T15:02:40.571Z,35.08
2023-05-22T15:05:09.737Z,35.05
2023-05-22T15:07:44.054Z,34.91
2023-05-22T15:10:14.101Z,34.17
2023-05-22T15:12:41.545Z,34.37
2023-05-22T15:15:09.951Z,34.18
2023-05-22T15:17:37.539Z,34.40
2023-05-22T15:20:07.037Z,35.59
2023-05-22T15:22:34.509Z,35.32
2023-05-22T15:25:06.225Z,35.49
2023-05-22T15:27:35.904Z,35.39
2023-05-22T15:30:04.853Z,35.35
2023-05-22T15:32:32.866Z,34.42
2023-05-22T15:35:00.461Z,35.28
2023-05-22T15:37:29.693Z,34.32
2023-05-22T15:39:59.125Z,34.61
2023-05-22T15:42:26.575Z,35.39
2023-05-22T15:44:55.515Z,34.80
2023-05-22T15:47:23.317Z,34.51
2023-05-22T15:49:50.742Z,34.66
2023-05-22T15:52:21.121Z,34.11
2023-05-22T15:54:48.589Z,34.33
2023-05-22T15:57:16.156Z,35.35
2023-05-22T15:59:43.654Z,34.16
2023-05-22T16:02:12.492Z,34.38
2023-05-22T16:04:40.436Z,34.81
2023-05-22T16:07:08.115Z,33.91
2023-05-22T16:09:36.138Z,34.43
2023-05-22T16:12:05.064Z,34.48
2023-05-22T16:14:32.554Z,34.39
2023-05-22T16:17:00.102Z,34.87
2023-05-22T16:19:29.047Z,34.08
2023-05-22T16:21:56.639Z,33.50
2023-05-22T16:24:24.120Z,34.40
2023-05-22T16:26:51.600Z,34.05
2023-05-22T16:29:20.422Z,34.85
2023-05-22T16:31:47.997Z,35.26
2023-05-22T16:34:15.487Z,34.45
2023-05-22T16:36:44.416Z,34.60
2023-05-22T16:39:11.889Z,34.71
2023-05-22T16:41:39.336Z,35.57
2023-05-22T16:44:06.929Z,35.65
2023-05-22T16:46:34.470Z,35.39
2023-05-22T16:49:01.942Z,34.50
2023-05-22T16:51:29.390Z,35.53
2023-05-22T16:53:58.166Z,35.56
2023-05-22T16:56:26.026Z,35.17
2023-05-22T16:58:53.506Z,35.54
2023-05-22T17:01:21.836Z,36.00
2023-05-22T17:03:49.558Z,36.15
2023-05-22T17:06:19.457Z,35.98
2023-05-22T17:08:48.325Z,35.78
2023-05-22T17:11:17.180Z,35.49
2023-05-22T17:13:44.597Z,35.14
2023-05-22T17:16:12.053Z,35.77
2023-05-22T17:18:39.524Z,36.00
2023-05-22T17:21:09.083Z,35.92
2023-05-22T17:23:37.267Z,35.43
2023-05-22T17:26:05.005Z,36.15
2023-05-22T17:28:33.811Z,35.53
2023-05-22T17:31:01.561Z,35.03
2023-05-22T17:33:29.142Z,35.77
2023-05-22T17:35:56.581Z,36.49
2023-05-22T17:38:24.032Z,36.02
2023-05-22T17:40:52.094Z,36.45
2023-05-22T17:43:19.967Z,37.03
2023-05-22T17:45:50.745Z,35.91
2023-05-22T17:48:23.368Z,36.29
2023-05-22T17:50:52.005Z,37.45
2023-05-22T17:53:20.730Z,36.98
2023-05-22T17:55:49.780Z,37.99
2023-05-22T17:58:17.928Z,37.41
2023-05-22T18:00:46.663Z,37.55
2023-05-22T18:03:15.810Z,37.82
2023-05-22T18:05:43.521Z,38.27
2023-05-22T18:08:11.531Z,39.36
2023-05-22T18:10:39.074Z,37.19
2023-05-22T18:13:06.699Z,37.67
2023-05-22T18:15:34.123Z,36.63
2023-05-22T18:18:01.796Z,36.16
2023-05-22T18:20:31.601Z,37.44
2023-05-22T18:22:59.093Z,37.07
2023-05-22T18:25:26.667Z,37.50
2023-05-22T18:27:55.460Z,36.55
2023-05-22T18:30:23.077Z,37.16
2023-05-22T18:32:50.695Z,36.87
2023-05-22T18:35:18.153Z,37.42
2023-05-22T18:37:47.004Z,37.68
2023-05-22T18:40:15.229Z,36.95
2023-05-22T18:42:43.347Z,36.63
2023-05-22T18:45:12.224Z,36.95
2023-05-22T18:47:39.691Z,37.57
2023-05-22T18:50:08.435Z,38.36
2023-05-22T18:52:35.967Z,37.60
2023-05-22T18:55:05.753Z,37.61
2023-05-22T18:57:33.226Z,37.62
2023-05-22T19:00:00.683Z,37.69
2023-05-22T19:02:28.200Z,39.14
2023-05-22T19:04:55.726Z,37.98
2023-05-22T19:07:23.208Z,37.98
2023-05-22T19:09:50.831Z,38.04
2023-05-22T19:12:19.629Z,38.61
2023-05-22T19:14:48.244Z,37.71
2023-05-22T19:17:15.994Z,38.13
2023-05-22T19:19:43.562Z,38.37
2023-05-22T19:22:11.058Z,38.64
2023-05-22T19:24:38.635Z,38.94
2023-05-22T19:27:06.740Z,38.87
2023-05-22T19:29:35.526Z,38.68
2023-05-22T19:32:03.017Z,38.85
2023-05-22T19:34:30.462Z,39.11
2023-05-22T19:36:58.234Z,38.47
2023-05-22T19:39:25.942Z,39.04
2023-05-22T19:41:54.460Z,38.85
2023-05-22T19:44:22.396Z,38.88
2023-05-22T19:46:51.296Z,38.19
2023-05-22T19:49:18.852Z,38.80
2023-05-22T19:51:46.506Z,38.80
2023-05-22T19:54:13.970Z,38.42
2023-05-22T19:56:41.397Z,38.97
2023-05-22T19:59:08.905Z,39.15
2023-05-22T20:01:36.360Z,39.08
2023-05-22T20:04:05.415Z,39.08
2023-05-22T20:06:33.986Z,39.14
2023-05-22T20:09:02.751Z,39.24
2023-05-22T20:11:30.549Z,38.46
2023-05-22T20:13:58.041Z,39.18
2023-05-22T20:16:29.142Z,39.34
2023-05-22T20:18:57.212Z,39.40
2023-05-22T20:21:26.224Z,38.83
2023-05-22T20:23:55.449Z,39.42
2023-05-22T20:26:22.932Z,39.84
2023-05-22T20:28:50.819Z,39.73
2023-05-22T20:31:18.621Z,39.55
2023-05-22T20:33:46.227Z,40.07
2023-05-22T20:36:16.468Z,39.25
2023-05-22T20:38:45.273Z,39.42
2023-05-22T20:41:13.604Z,39.34
2023-05-22T20:43:43.128Z,40.07
2023-05-22T20:46:11.175Z,40.36
2023-05-22T20:48:39.008Z,39.84
2023-05-22T20:51:06.590Z,40.10
2023-05-22T20:53:34.077Z,40.03
2023-05-22T20:56:02.880Z,40.17
2023-05-22T20:58:30.306Z,40.27
2023-05-22T21:00:57.811Z,40.28
2023-05-22T21:03:26.062Z,40.46
2023-05-22T21:05:53.722Z,40.41
2023-05-22T21:08:21.840Z,40.78
2023-05-22T21:10:49.276Z,40.37
2023-05-22T21:13:18.118Z,40.93
2023-05-22T21:15:45.557Z,40.22
2023-05-22T21:18:13.029Z,41.27
2023-05-22T21:20:40.625Z,41.21
2023-05-22T21:23:08.402Z,41.31
2023-05-22T21:25:36.405Z,41.33
2023-05-22T21:28:03.973Z,41.31
2023-05-22T21:30:32.768Z,41.28
2023-05-22T21:33:01.044Z,41.84
2023-05-22T21:35:28.681Z,41.36
2023-05-22T21:37:56.187Z,41.80
2023-05-22T21:40:23.824Z,41.64
2023-05-22T21:42:51.278Z,41.14
2023-05-22T21:45:18.714Z,42.00
2023-05-22T21:47:47.472Z,41.80
2023-05-22T21:50:14.972Z,42.57
2023-05-22T21:52:44.111Z,41.62
2023-05-22T21:55:11.655Z,41.58
2023-05-22T21:57:39.755Z,42.88
2023-05-22T22:00:08.349Z,42.11
2023-05-22T22:02:35.949Z,41.96
2023-05-22T22:05:05.347Z,41.73
2023-05-22T22:07:32.816Z,42.56
2023-05-22T22:10:00.608Z,42.55
2023-05-22T22:12:28.077Z,42.38
2023-05-22T22:14:55.529Z,43.16
2023-05-22T22:17:23.894Z,43.27
2023-05-22T22:19:53.396Z,42.56
2023-05-22T22:22:22.813Z,42.31
2023-05-22T22:24:50.732Z,42.82
2023-05-22T22:27:19.645Z,42.51
2023-05-22T22:29:47.082Z,43.52
2023-05-22T22:32:14.631Z,42.64
2023-05-22T22:34:43.218Z,44.11
2023-05-22T22:37:11.098Z,42.53
2023-05-22T22:39:39.842Z,42.97
2023-05-22T22:42:07.945Z,42.53
2023-05-22T22:44:35.521Z,42.58
2023-05-22T22:47:03.096Z,43.06
2023-05-22T22:49:31.543Z,43.27
2023-05-22T22:51:59.265Z,43.54
2023-05-22T22:54:26.717Z,42.78
2023-05-22T22:56:55.544Z,43.01
2023-05-22T22:59:22.990Z,43.54
2023-05-22T23:01:50.504Z,43.58
2023-05-22T23:04:18.079Z,43.53
2023-05-22T23:06:46.349Z,42.94
2023-05-22T23:09:14.504Z,43.01
2023-05-22T23:11:41.988Z,43.61
2023-05-22T23:14:10.843Z,43.31
2023-05-22T23:16:40.704Z,44.05
2023-05-22T23:19:10.298Z,43.69
2023-05-22T23:21:38.011Z,43.10
2023-05-22T23:24:06.268Z,43.55
2023-05-22T23:26:34.621Z,42.87
2023-05-22T23:29:02.335Z,42.95
2023-05-22T23:31:31.783Z,42.97
2023-05-22T23:33:59.920Z,43.41
2023-05-22T23:36:27.352Z,44.27
2023-05-22T23:38:54.802Z,43.79
2023-05-22T23:41:22.244Z,44.44
2023-05-22T23:43:49.670Z,44.65
2023-05-22T23:46:17.971Z,43.85
2023-05-22T23:48:46.773Z,43.59
2023-05-22T23:51:14.535Z,44.23
2023-05-22T23:53:42.688Z,43.51
2023-05-22T23:56:10.338Z,43.44
2023-05-22T23:58:38.141Z,43.85
